Time;durP1;ratioP1;P1;durP2;ratioP2;P2;SDS_P1;SDS_P2;PMS_P1;PMS_P2;Temp;Humidity;BMP_temperature;BMP_pressure;BME280_temperature;BME280_humidity;BME280_pressure;Samples;Min_cycle;Max_cycle;Signal;HPM_P1;HPM_P2
2021/11/19 00:02:25;;;;;;;10.9;13.4;;;;;;;7.9;68.4;99330;;;;
2021/11/19 00:09:43;;;;;;;;;;;;;;;7.8;68.3;99320;;;;
2021/11/19 00:19:43;;;;;;;7.9;11.2;;;;;;;7.8;68.4;99350;;;;
2021/11/19 00:29:43;;;;;;;7.9;11.2;;;;;;;7.8;68.6;99340;;;;
2021/11/19 00:40:43;;;;;;;7.9;11.2;;;;;;;7.9;68.5;99340;;;;
2021/11/19 00:50:43;;;;;;;7.9;11.6;;;;;;;7.9;68.4;99320;;;;
2021/11/19 01:01:43;;;;;;;7.9;11.6;;;;;;;7.9;68.6;99310;;;;
2021/11/19 01:12:43;;;;;;;7.9;11.6;;;;;;;8;68.6;99310;;;;
2021/11/19 01:22:43;;;;;;;7.5;12.8;;;;;;;8.1;68.8;99300;;;;
2021/11/19 01:32:43;;;;;;;7.5;12.8;;;;;;;8.1;69.2;99300;;;;
2021/11/19 01:42:43;;;;;;;7.5;12.8;;;;;;;8.1;69.2;99280;;;;
2021/11/19 01:52:43;;;;;;;5.2;8.1;;;;;;;8.1;68.8;99290;;;;
2021/11/19 02:02:43;;;;;;;5.2;8.1;;;;;;;8.1;68.8;99290;;;;
2021/11/19 02:12:44;;;;;;;5.2;8.1;;;;;;;8;68.8;99270;;;;
2021/11/19 02:22:43;;;;;;;8.2;12.2;;;;;;;8;69.2;99260;;;;
2021/11/19 02:32:43;;;;;;;8.2;12.2;;;;;;;8;69.5;99240;;;;
2021/11/19 02:43:43;;;;;;;8.2;12.2;;;;;;;7.9;70;99240;;;;
2021/11/19 02:54:43;;;;;;;7;10.9;;;;;;;8;70.2;99240;;;;
2021/11/19 03:05:43;;;;;;;7;10.9;;;;;;;8;70.7;99230;;;;
2021/11/19 03:15:44;;;;;;;7;10.9;;;;;;;7.9;71.8;99220;;;;
2021/11/19 03:25:43;;;;;;;7.2;10.5;;;;;;;7.8;72.7;99200;;;;
2021/11/19 03:36:44;;;;;;;7.2;10.5;;;;;;;7.9;72.8;99190;;;;
2021/11/19 03:47:43;;;;;;;6.9;11.1;;;;;;;7.9;73.1;99190;;;;
2021/11/19 03:58:44;;;;;;;6.9;11.1;;;;;;;7.8;74.1;99190;;;;
2021/11/19 04:09:44;;;;;;;6.9;11.1;;;;;;;7.8;74.3;99190;;;;
2021/11/19 04:20:43;;;;;;;4.9;7.5;;;;;;;7.9;74.4;99180;;;;
2021/11/19 04:30:43;;;;;;;4.9;7.5;;;;;;;8;74.3;99190;;;;
2021/11/19 04:40:43;;;;;;;4.9;7.5;;;;;;;8;75;99180;;;;
2021/11/19 04:50:43;;;;;;;5.5;9.7;;;;;;;7.8;77;99180;;;;
2021/11/19 05:01:43;;;;;;;5.5;9.7;;;;;;;7.8;77.9;99170;;;;
2021/11/19 05:11:43;;;;;;;5.5;9.7;;;;;;;7.7;78.7;99170;;;;
2021/11/19 05:21:43;;;;;;;4.3;8.3;;;;;;;7.7;79.6;99170;;;;
2021/11/19 05:32:43;;;;;;;4.3;8.3;;;;;;;7.7;79.5;99170;;;;
2021/11/19 05:43:43;;;;;;;4.3;8.3;;;;;;;7.7;79.2;99180;;;;
2021/11/19 05:53:43;;;;;;;5.3;7.2;;;;;;;7.8;79.2;99190;;;;
2021/11/19 06:03:44;;;;;;;5.3;7.2;;;;;;;7.8;79;99180;;;;
2021/11/19 06:14:43;;;;;;;5.3;7.2;;;;;;;7.8;79.2;99190;;;;
2021/11/19 06:25:43;;;;;;;8.9;12.6;;;;;;;7.8;79.7;99220;;;;
2021/11/19 06:36:44;;;;;;;8.9;12.6;;;;;;;7.9;80.3;99230;;;;
2021/11/19 06:46:43;;;;;;;8.9;12.6;;;;;;;7.9;81;99240;;;;
2021/11/19 06:56:43;;;;;;;9.1;12.6;;;;;;;7.9;81.5;99230;;;;
2021/11/19 07:07:43;;;;;;;9.1;12.6;;;;;;;7.9;82;99240;;;;
2021/11/19 07:17:43;;;;;;;7.4;11.1;;;;;;;7.9;82;99230;;;;
2021/11/19 07:27:43;;;;;;;7.4;11.1;;;;;;;8;81.9;99250;;;;
2021/11/19 07:38:43;;;;;;;7.4;11.1;;;;;;;8.1;81.6;99250;;;;
2021/11/19 07:48:43;;;;;;;7.1;10.5;;;;;;;8.1;81.7;99230;;;;
2021/11/19 07:59:43;;;;;;;7.1;10.5;;;;;;;8.2;81.5;99230;;;;
2021/11/19 08:09:43;;;;;;;7.1;10.5;;;;;;;8.3;81.7;99220;;;;
2021/11/19 08:20:43;;;;;;;5.1;6.9;;;;;;;8.4;81.4;99250;;;;
2021/11/19 08:31:43;;;;;;;5.1;6.9;;;;;;;8.3;81.4;99250;;;;
2021/11/19 08:41:43;;;;;;;5.1;6.9;;;;;;;8.4;81.4;99280;;;;
2021/11/19 08:52:43;;;;;;;7;9.8;;;;;;;8.5;81.3;99280;;;;
2021/11/19 09:02:43;;;;;;;7;9.8;;;;;;;8.5;81.5;99280;;;;
2021/11/19 09:12:43;;;;;;;7;9.8;;;;;;;8.6;81.3;99280;;;;
2021/11/19 09:22:43;;;;;;;9.1;14.3;;;;;;;8.8;81.1;99270;;;;
2021/11/19 09:32:43;;;;;;;9.1;14.3;;;;;;;8.8;80.8;99260;;;;
2021/11/19 09:43:43;;;;;;;9.1;14.3;;;;;;;8.8;80.8;99280;;;;
2021/11/19 09:54:43;;;;;;;6.9;10.4;;;;;;;8.9;80.3;99290;;;;
2021/11/19 10:05:43;;;;;;;6.9;10.4;;;;;;;9;80.2;99280;;;;
2021/11/19 10:15:43;;;;;;;6.9;10.4;;;;;;;9.1;79.8;99250;;;;
2021/11/19 10:25:46;;;;;;;5.9;9.9;;;;;;;9.3;79.5;99240;;;;
2021/11/19 10:35:45;;;;;;;5.9;9.9;;;;;;;9.4;79.3;99220;;;;
2021/11/19 10:46:44;;;;;;;6.7;11.1;;;;;;;9.4;79.2;99220;;;;
2021/11/19 10:56:44;;;;;;;6.7;11.1;;;;;;;9.6;79.2;99200;;;;
2021/11/19 11:14:59;;;;;;;6.7;11.1;;;;;;;9.4;80.7;99200;;;;
2021/11/19 11:25:01;;;;;;;5.7;8.2;;;;;;;9.3;81.5;99200;;;;
2021/11/19 11:35:59;;;;;;;5.7;8.2;;;;;;;9.4;81.8;99200;;;;
2021/11/19 11:45:59;;;;;;;5.7;8.2;;;;;;;9.4;81.8;99200;;;;
2021/11/19 11:55:59;;;;;;;6.4;9.9;;;;;;;9.3;82.2;99200;;;;
2021/11/19 12:06:59;;;;;;;6.4;9.9;;;;;;;9.3;82.1;99200;;;;
2021/11/19 12:16:59;;;;;;;6.7;9.8;;;;;;;9.3;82.1;99180;;;;
2021/11/19 12:27:00;;;;;;;6.7;9.8;;;;;;;9.5;81.9;99210;;;;
2021/11/19 12:36:59;;;;;;;6.7;9.8;;;;;;;9.3;82.3;99200;;;;
2021/11/19 12:46:59;;;;;;;7;10.2;;;;;;;9.4;82.4;99200;;;;
2021/11/19 12:56:59;;;;;;;7;10.2;;;;;;;9.4;82.4;99190;;;;
2021/11/19 13:06:59;;;;;;;7;10.2;;;;;;;9.4;82.3;99190;;;;
2021/11/19 13:16:59;;;;;;;10.6;16.6;;;;;;;9.4;82.3;99180;;;;
2021/11/19 13:28:00;;;;;;;10.6;16.6;;;;;;;9.5;81.9;99190;;;;
2021/11/19 13:38:59;;;;;;;10.6;16.6;;;;;;;9.6;81;99190;;;;
2021/11/19 13:48:59;;;;;;;14.5;18.8;;;;;;;9.6;80.5;99180;;;;
2021/11/19 13:59:59;;;;;;;14.5;18.8;;;;;;;9.7;80;99210;;;;
2021/11/19 14:09:59;;;;;;;14.5;18.8;;;;;;;9.8;79.8;99210;;;;
2021/11/19 14:22:03;;;;;;;12.6;16.7;;;;;;;9.8;80;99220;;;;
2021/11/19 14:32:02;;;;;;;12.6;16.7;;;;;;;9.7;80.2;99210;;;;
2021/11/19 14:41:59;;;;;;;12.6;16.7;;;;;;;9.7;80.4;99210;;;;
2021/11/19 14:51:59;;;;;;;13.8;18.1;;;;;;;9.8;79.7;99210;;;;
2021/11/19 15:01:59;;;;;;;13.8;18.1;;;;;;;9.8;79.7;99210;;;;
2021/11/19 15:11:59;;;;;;;13.8;18.1;;;;;;;9.8;80.2;99200;;;;
2021/11/19 15:22:59;;;;;;;13.1;19.4;;;;;;;9.7;81.2;99210;;;;
2021/11/19 15:32:59;;;;;;;13.1;19.4;;;;;;;9.7;81.8;99210;;;;
2021/11/19 15:42:59;;;;;;;13.1;19.4;;;;;;;9.6;82.1;99200;;;;
2021/11/19 15:53:00;;;;;;;13.6;17.3;;;;;;;9.7;81.9;99200;;;;
2021/11/19 16:03:59;;;;;;;13.6;17.3;;;;;;;9.7;81.7;99210;;;;
2021/11/19 16:15:00;;;;;;;13.6;17.3;;;;;;;9.8;81.3;99220;;;;
2021/11/19 16:25:59;;;;;;;14.9;17.4;;;;;;;9.8;81.5;99220;;;;
2021/11/19 16:36:59;;;;;;;14.9;17.4;;;;;;;9.8;81.3;99220;;;;
2021/11/19 16:46:59;;;;;;;14.2;16.9;;;;;;;9.8;81;99210;;;;
2021/11/19 16:57:59;;;;;;;14.2;16.9;;;;;;;10;80.3;99200;;;;
2021/11/19 17:07:59;;;;;;;14.2;16.9;;;;;;;10;80.1;99210;;;;
2021/11/19 17:18:59;;;;;;;11.6;14;;;;;;;9.9;81;99200;;;;
2021/11/19 17:29:59;;;;;;;11.6;14;;;;;;;9.9;81.1;99220;;;;
2021/11/19 17:39:59;;;;;;;11.6;14;;;;;;;10;80.7;99220;;;;
2021/11/19 17:50:00;;;;;;;12.8;15.8;;;;;;;9.9;81.4;99210;;;;
2021/11/19 17:59:59;;;;;;;12.8;15.8;;;;;;;9.8;81.9;99210;;;;
2021/11/19 18:10:59;;;;;;;12.8;15.8;;;;;;;9.7;82.3;99210;;;;
2021/11/19 18:21:59;;;;;;;10.7;12.3;;;;;;;9.7;82.6;99210;;;;
2021/11/19 18:32:59;;;;;;;10.7;12.3;;;;;;;9.7;82.4;99220;;;;
2021/11/19 18:42:59;;;;;;;10.7;12.3;;;;;;;9.7;83;99220;;;;
2021/11/19 18:53:59;;;;;;;14.5;16.9;;;;;;;9.6;83.5;99220;;;;
2021/11/19 19:03:59;;;;;;;14.5;16.9;;;;;;;9.6;83.7;99220;;;;
2021/11/19 19:14:59;;;;;;;14.5;16.9;;;;;;;9.6;83.7;99230;;;;
2021/11/19 19:25:59;;;;;;;17.5;23.1;;;;;;;9.5;84.1;99230;;;;
2021/11/19 19:37:01;;;;;;;17.5;23.1;;;;;;;9.6;83.9;99220;;;;
2021/11/19 19:46:59;;;;;;;17;24.6;;;;;;;9.6;83.8;99230;;;;
2021/11/19 19:56:59;;;;;;;17;24.6;;;;;;;9.6;83.7;99240;;;;
2021/11/19 20:07:00;;;;;;;17;24.6;;;;;;;9.7;83.7;99240;;;;
2021/11/19 20:17:59;;;;;;;14;19;;;;;;;9.7;83.8;99230;;;;
2021/11/19 20:29:00;;;;;;;14;19;;;;;;;9.6;84.2;99210;;;;
2021/11/19 20:39:59;;;;;;;14;19;;;;;;;9.7;84.3;99220;;;;
2021/11/19 20:50:59;;;;;;;14;18.6;;;;;;;9.6;84.7;99220;;;;
2021/11/19 21:02:00;;;;;;;14;18.6;;;;;;;9.7;84.3;99210;;;;
2021/11/19 21:12:00;;;;;;;14;18.6;;;;;;;9.7;84.4;99220;;;;
2021/11/19 21:21:59;;;;;;;14.7;17.5;;;;;;;9.6;84.6;99230;;;;
2021/11/19 21:32:59;;;;;;;14.7;17.5;;;;;;;9.6;84.6;99230;;;;
2021/11/19 21:42:59;;;;;;;14.7;17.5;;;;;;;9.6;84.2;99240;;;;
2021/11/19 21:53:02;;;;;;;17.6;19.8;;;;;;;9.6;84.1;99230;;;;
2021/11/19 22:03:59;;;;;;;17.6;19.8;;;;;;;9.7;83.4;99240;;;;
2021/11/19 22:13:59;;;;;;;17.6;19.8;;;;;;;9.7;83.2;99240;;;;
2021/11/19 22:24:59;;;;;;;16.1;20.8;;;;;;;9.7;82.5;99230;;;;
2021/11/19 22:36:01;;;;;;;16.1;20.8;;;;;;;9.8;81.1;99240;;;;
2021/11/19 22:45:59;;;;;;;14.3;18.4;;;;;;;10;79.8;99240;;;;
2021/11/19 22:56:59;;;;;;;14.3;18.4;;;;;;;10.1;78.5;99230;;;;
2021/11/19 23:06:59;;;;;;;14.3;18.4;;;;;;;10.2;77.3;99250;;;;
2021/11/19 23:16:59;;;;;;;10.6;14.5;;;;;;;10.2;76.8;99230;;;;
2021/11/19 23:27:59;;;;;;;10.6;14.5;;;;;;;10.3;76.1;99210;;;;
2021/11/19 23:38:59;;;;;;;10.6;14.5;;;;;;;10.3;75.1;99200;;;;
2021/11/19 23:49:59;;;;;;;9.1;12.1;;;;;;;10.4;74.8;99210;;;;
2021/11/19 23:59:59;;;;;;;9.1;12.1;;;;;;;10.4;74.7;99180;;;;
